sensor_id;sensor_type;location;lat;lon;timestamp;temperature;humidity
55091;DHT22;40985;53.180;5.800;2024-01-06T00:01:26;1.90;99.90
55091;DHT22;40985;53.180;5.800;2024-01-06T00:03:51;2.20;99.90
55091;DHT22;40985;53.180;5.800;2024-01-06T00:06:17;1.80;99.90
55091;DHT22;40985;53.180;5.800;2024-01-06T00:08:43;2.20;99.90
55091;DHT22;40985;53.180;5.800;2024-01-06T00:11:09;2.10;99.90
55091;DHT22;40985;53.180;5.800;2024-01-06T00:13:35;1.80;99.90
55091;DHT22;40985;53.180;5.800;2024-01-06T00:16:01;2.10;99.90
55091;DHT22;40985;53.180;5.800;2024-01-06T00:18:27;1.80;99.90
55091;DHT22;40985;53.180;5.800;2024-01-06T00:20:53;2.10;99.90
55091;DHT22;40985;53.180;5.800;2024-01-06T00:23:18;1.90;99.90
55091;DHT22;40985;53.180;5.800;2024-01-06T00:25:44;1.90;99.90
55091;DHT22;40985;53.180;5.800;2024-01-06T00:28:10;2.00;99.90
55091;DHT22;40985;53.180;5.800;2024-01-06T00:30:36;2.20;99.90
55091;DHT22;40985;53.180;5.800;2024-01-06T00:33:02;2.10;99.90
55091;DHT22;40985;53.180;5.800;2024-01-06T00:35:27;2.10;99.90
55091;DHT22;40985;53.180;5.800;2024-01-06T00:37:53;2.20;99.90
55091;DHT22;40985;53.180;5.800;2024-01-06T00:40:20;1.80;99.90
55091;DHT22;40985;53.180;5.800;2024-01-06T00:42:46;1.80;99.90
55091;DHT22;40985;53.180;5.800;2024-01-06T00:45:12;2.10;99.90
55091;DHT22;40985;53.180;5.800;2024-01-06T00:47:37;2.00;99.90
55091;DHT22;40985;53.180;5.800;2024-01-06T00:50:04;2.10;99.90
55091;DHT22;40985;53.180;5.800;2024-01-06T00:52:29;1.80;99.90
55091;DHT22;40985;53.180;5.800;2024-01-06T00:54:55;2.20;99.90
55091;DHT22;40985;53.180;5.800;2024-01-06T00:57:21;2.00;99.90
55091;DHT22;40985;53.180;5.800;2024-01-06T00:59:49;1.90;99.90
55091;DHT22;40985;53.180;5.800;2024-01-06T01:02:16;1.90;99.90
55091;DHT22;40985;53.180;5.800;2024-01-06T01:04:41;2.20;99.90
55091;DHT22;40985;53.180;5.800;2024-01-06T01:07:07;2.20;99.90
55091;DHT22;40985;53.180;5.800;2024-01-06T01:09:33;2.00;99.90
55091;DHT22;40985;53.180;5.800;2024-01-06T01:11:58;1.80;99.90
55091;DHT22;40985;53.180;5.800;2024-01-06T01:14:24;2.10;99.90
55091;DHT22;40985;53.180;5.800;2024-01-06T01:16:49;2.00;99.90
55091;DHT22;40985;53.180;5.800;2024-01-06T01:19:15;2.20;99.90
55091;DHT22;40985;53.180;5.800;2024-01-06T01:21:41;2.20;99.90
55091;DHT22;40985;53.180;5.800;2024-01-06T01:24:06;1.80;99.90
55091;DHT22;40985;53.180;5.800;2024-01-06T01:26:32;2.00;99.90
55091;DHT22;40985;53.180;5.800;2024-01-06T01:28:58;2.20;99.90
55091;DHT22;40985;53.180;5.800;2024-01-06T01:31:24;1.80;99.90
55091;DHT22;40985;53.180;5.800;2024-01-06T01:33:50;1.80;99.90
55091;DHT22;40985;53.180;5.800;2024-01-06T01:36:15;2.00;99.90
55091;DHT22;40985;53.180;5.800;2024-01-06T01:38:41;2.20;99.90
55091;DHT22;40985;53.180;5.800;2024-01-06T01:41:07;2.10;99.90
55091;DHT22;40985;53.180;5.800;2024-01-06T01:43:32;2.10;99.90
55091;DHT22;40985;53.180;5.800;2024-01-06T01:45:58;2.10;99.90
55091;DHT22;40985;53.180;5.800;2024-01-06T01:48:24;1.80;99.90
55091;DHT22;40985;53.180;5.800;2024-01-06T01:50:51;2.00;99.90
55091;DHT22;40985;53.180;5.800;2024-01-06T01:53:18;1.80;99.90
55091;DHT22;40985;53.180;5.800;2024-01-06T01:55:45;1.80;99.90
55091;DHT22;40985;53.180;5.800;2024-01-06T01:58:12;2.10;99.90
55091;DHT22;40985;53.180;5.800;2024-01-06T02:00:39;2.10;99.90
55091;DHT22;40985;53.180;5.800;2024-01-06T02:03:05;1.80;99.90
55091;DHT22;40985;53.180;5.800;2024-01-06T02:05:31;1.80;99.90
55091;DHT22;40985;53.180;5.800;2024-01-06T02:07:57;2.20;99.90
55091;DHT22;40985;53.180;5.800;2024-01-06T02:10:23;1.90;99.90
55091;DHT22;40985;53.180;5.800;2024-01-06T02:12:49;1.80;99.90
55091;DHT22;40985;53.180;5.800;2024-01-06T02:15:17;2.00;99.90
55091;DHT22;40985;53.180;5.800;2024-01-06T02:17:43;1.80;99.90
55091;DHT22;40985;53.180;5.800;2024-01-06T02:20:11;2.30;99.90
55091;DHT22;40985;53.180;5.800;2024-01-06T02:22:37;1.80;99.90
55091;DHT22;40985;53.180;5.800;2024-01-06T02:25:05;2.30;99.90
55091;DHT22;40985;53.180;5.800;2024-01-06T02:27:40;2.00;99.90
55091;DHT22;40985;53.180;5.800;2024-01-06T02:30:06;2.10;99.90
55091;DHT22;40985;53.180;5.800;2024-01-06T02:32:33;2.00;99.90
55091;DHT22;40985;53.180;5.800;2024-01-06T02:34:58;2.30;99.90
55091;DHT22;40985;53.180;5.800;2024-01-06T02:37:24;2.20;99.90
55091;DHT22;40985;53.180;5.800;2024-01-06T02:39:50;2.30;99.90
55091;DHT22;40985;53.180;5.800;2024-01-06T02:42:16;2.30;99.90
55091;DHT22;40985;53.180;5.800;2024-01-06T02:44:42;2.20;99.90
55091;DHT22;40985;53.180;5.800;2024-01-06T02:47:07;2.00;99.90
55091;DHT22;40985;53.180;5.800;2024-01-06T02:49:33;2.40;99.90
55091;DHT22;40985;53.180;5.800;2024-01-06T02:51:58;2.30;99.90
55091;DHT22;40985;53.180;5.800;2024-01-06T02:54:24;2.30;99.90
55091;DHT22;40985;53.180;5.800;2024-01-06T02:56:50;2.40;99.90
55091;DHT22;40985;53.180;5.800;2024-01-06T02:59:15;2.30;99.90
55091;DHT22;40985;53.180;5.800;2024-01-06T03:01:41;2.40;99.90
55091;DHT22;40985;53.180;5.800;2024-01-06T03:04:07;2.40;99.90
55091;DHT22;40985;53.180;5.800;2024-01-06T03:06:34;2.00;99.90
55091;DHT22;40985;53.180;5.800;2024-01-06T03:09:00;2.40;99.90
55091;DHT22;40985;53.180;5.800;2024-01-06T03:11:25;2.00;99.90
55091;DHT22;40985;53.180;5.800;2024-01-06T03:13:51;1.90;99.90
55091;DHT22;40985;53.180;5.800;2024-01-06T03:16:17;2.10;99.90
55091;DHT22;40985;53.180;5.800;2024-01-06T03:18:42;2.30;99.90
55091;DHT22;40985;53.180;5.800;2024-01-06T03:21:20;2.00;99.90
55091;DHT22;40985;53.180;5.800;2024-01-06T03:23:47;2.30;99.90
55091;DHT22;40985;53.180;5.800;2024-01-06T03:26:13;2.30;99.90
55091;DHT22;40985;53.180;5.800;2024-01-06T03:28:39;2.00;99.90
55091;DHT22;40985;53.180;5.800;2024-01-06T03:31:04;2.10;99.90
55091;DHT22;40985;53.180;5.800;2024-01-06T03:33:30;2.20;99.90
55091;DHT22;40985;53.180;5.800;2024-01-06T03:35:56;1.90;99.90
55091;DHT22;40985;53.180;5.800;2024-01-06T03:38:21;2.20;99.90
55091;DHT22;40985;53.180;5.800;2024-01-06T03:40:47;2.40;99.90
55091;DHT22;40985;53.180;5.800;2024-01-06T03:43:13;2.30;99.90
55091;DHT22;40985;53.180;5.800;2024-01-06T03:45:38;2.40;99.90
55091;DHT22;40985;53.180;5.800;2024-01-06T03:48:04;2.20;99.90
55091;DHT22;40985;53.180;5.800;2024-01-06T03:50:30;2.00;99.90
55091;DHT22;40985;53.180;5.800;2024-01-06T03:52:56;2.00;99.90
55091;DHT22;40985;53.180;5.800;2024-01-06T03:55:22;2.00;99.90
55091;DHT22;40985;53.180;5.800;2024-01-06T03:57:47;2.30;99.90
55091;DHT22;40985;53.180;5.800;2024-01-06T04:00:13;2.10;99.90
55091;DHT22;40985;53.180;5.800;2024-01-06T04:02:39;2.10;99.90
55091;DHT22;40985;53.180;5.800;2024-01-06T04:05:05;2.40;99.90
55091;DHT22;40985;53.180;5.800;2024-01-06T04:07:30;2.00;99.90
55091;DHT22;40985;53.180;5.800;2024-01-06T04:09:56;2.50;99.90
55091;DHT22;40985;53.180;5.800;2024-01-06T04:12:23;2.20;99.90
55091;DHT22;40985;53.180;5.800;2024-01-06T04:14:48;2.40;99.90
55091;DHT22;40985;53.180;5.800;2024-01-06T04:17:14;2.50;99.90
55091;DHT22;40985;53.180;5.800;2024-01-06T04:19:39;2.10;99.90
55091;DHT22;40985;53.180;5.800;2024-01-06T04:22:05;2.00;99.90
55091;DHT22;40985;53.180;5.800;2024-01-06T04:24:31;2.40;99.90
55091;DHT22;40985;53.180;5.800;2024-01-06T04:26:58;2.30;99.90
55091;DHT22;40985;53.180;5.800;2024-01-06T04:29:23;2.00;99.90
55091;DHT22;40985;53.180;5.800;2024-01-06T04:31:49;2.40;99.90
55091;DHT22;40985;53.180;5.800;2024-01-06T04:34:15;2.30;99.90
55091;DHT22;40985;53.180;5.800;2024-01-06T04:36:40;2.40;99.90
55091;DHT22;40985;53.180;5.800;2024-01-06T04:39:06;2.00;99.90
55091;DHT22;40985;53.180;5.800;2024-01-06T04:41:32;2.50;99.90
55091;DHT22;40985;53.180;5.800;2024-01-06T04:43:58;2.10;99.90
55091;DHT22;40985;53.180;5.800;2024-01-06T04:46:23;2.00;99.90
55091;DHT22;40985;53.180;5.800;2024-01-06T04:48:49;2.10;99.90
55091;DHT22;40985;53.180;5.800;2024-01-06T04:51:15;2.10;99.90
55091;DHT22;40985;53.180;5.800;2024-01-06T04:53:41;2.40;99.90
55091;DHT22;40985;53.180;5.800;2024-01-06T04:56:07;2.10;99.90
55091;DHT22;40985;53.180;5.800;2024-01-06T04:58:32;2.10;99.90
55091;DHT22;40985;53.180;5.800;2024-01-06T05:00:58;2.30;99.90
55091;DHT22;40985;53.180;5.800;2024-01-06T05:03:23;2.40;99.90
55091;DHT22;40985;53.180;5.800;2024-01-06T05:05:49;2.40;99.90
55091;DHT22;40985;53.180;5.800;2024-01-06T05:08:15;2.40;99.90
55091;DHT22;40985;53.180;5.800;2024-01-06T05:10:42;2.20;99.90
55091;DHT22;40985;53.180;5.800;2024-01-06T05:13:08;2.10;99.90
55091;DHT22;40985;53.180;5.800;2024-01-06T05:15:34;2.40;99.90
55091;DHT22;40985;53.180;5.800;2024-01-06T05:17:59;2.10;99.90
55091;DHT22;40985;53.180;5.800;2024-01-06T05:20:25;1.90;99.90
55091;DHT22;40985;53.180;5.800;2024-01-06T05:22:51;2.30;99.90
55091;DHT22;40985;53.180;5.800;2024-01-06T05:25:16;2.40;99.90
55091;DHT22;40985;53.180;5.800;2024-01-06T05:27:42;2.00;99.90
55091;DHT22;40985;53.180;5.800;2024-01-06T05:30:08;2.30;99.90
55091;DHT22;40985;53.180;5.800;2024-01-06T05:32:34;1.90;99.90
55091;DHT22;40985;53.180;5.800;2024-01-06T05:34:59;1.90;99.90
55091;DHT22;40985;53.180;5.800;2024-01-06T05:37:25;2.30;99.90
55091;DHT22;40985;53.180;5.800;2024-01-06T05:39:51;2.20;99.90
55091;DHT22;40985;53.180;5.800;2024-01-06T05:42:17;1.90;99.90
55091;DHT22;40985;53.180;5.800;2024-01-06T05:44:42;2.10;99.90
55091;DHT22;40985;53.180;5.800;2024-01-06T05:47:08;2.20;99.90
55091;DHT22;40985;53.180;5.800;2024-01-06T05:49:34;1.90;99.90
55091;DHT22;40985;53.180;5.800;2024-01-06T05:52:00;2.10;99.90
55091;DHT22;40985;53.180;5.800;2024-01-06T05:54:25;2.10;99.90
55091;DHT22;40985;53.180;5.800;2024-01-06T05:56:51;2.40;99.90
55091;DHT22;40985;53.180;5.800;2024-01-06T05:59:17;2.40;99.90
55091;DHT22;40985;53.180;5.800;2024-01-06T06:01:43;1.90;99.90
55091;DHT22;40985;53.180;5.800;2024-01-06T06:04:10;2.40;99.90
55091;DHT22;40985;53.180;5.800;2024-01-06T06:06:36;2.10;99.90
55091;DHT22;40985;53.180;5.800;2024-01-06T06:09:03;2.10;99.90
55091;DHT22;40985;53.180;5.800;2024-01-06T06:11:33;2.40;99.90
55091;DHT22;40985;53.180;5.800;2024-01-06T06:13:58;2.00;99.90
55091;DHT22;40985;53.180;5.800;2024-01-06T06:16:24;2.20;99.90
55091;DHT22;40985;53.180;5.800;2024-01-06T06:18:50;2.00;99.90
55091;DHT22;40985;53.180;5.800;2024-01-06T06:21:15;2.30;99.90
55091;DHT22;40985;53.180;5.800;2024-01-06T06:23:41;2.30;99.90
55091;DHT22;40985;53.180;5.800;2024-01-06T06:26:07;2.40;99.90
55091;DHT22;40985;53.180;5.800;2024-01-06T06:28:34;2.40;99.90
55091;DHT22;40985;53.180;5.800;2024-01-06T06:31:01;2.40;99.90
55091;DHT22;40985;53.180;5.800;2024-01-06T06:33:26;2.50;99.90
55091;DHT22;40985;53.180;5.800;2024-01-06T06:35:52;2.40;99.90
55091;DHT22;40985;53.180;5.800;2024-01-06T06:38:18;2.50;99.90
55091;DHT22;40985;53.180;5.800;2024-01-06T06:41:02;2.50;99.90
55091;DHT22;40985;53.180;5.800;2024-01-06T06:43:28;2.50;99.90
55091;DHT22;40985;53.180;5.800;2024-01-06T06:45:54;2.30;99.90
55091;DHT22;40985;53.180;5.800;2024-01-06T06:48:21;2.10;99.90
55091;DHT22;40985;53.180;5.800;2024-01-06T06:50:46;2.50;99.90
55091;DHT22;40985;53.180;5.800;2024-01-06T06:53:12;2.30;99.90
55091;DHT22;40985;53.180;5.800;2024-01-06T06:55:38;2.20;99.90
55091;DHT22;40985;53.180;5.800;2024-01-06T06:58:05;2.10;99.90
55091;DHT22;40985;53.180;5.800;2024-01-06T07:00:31;2.40;99.90
55091;DHT22;40985;53.180;5.800;2024-01-06T07:02:56;2.10;99.90
55091;DHT22;40985;53.180;5.800;2024-01-06T07:05:23;2.50;99.90
55091;DHT22;40985;53.180;5.800;2024-01-06T07:07:48;2.30;99.90
55091;DHT22;40985;53.180;5.800;2024-01-06T07:10:14;2.40;99.90
55091;DHT22;40985;53.180;5.800;2024-01-06T07:12:40;2.10;99.90
55091;DHT22;40985;53.180;5.800;2024-01-06T07:15:06;2.10;99.90
55091;DHT22;40985;53.180;5.800;2024-01-06T07:17:33;2.60;99.90
55091;DHT22;40985;53.180;5.800;2024-01-06T07:19:58;2.20;99.90
55091;DHT22;40985;53.180;5.800;2024-01-06T07:22:24;2.50;99.90
55091;DHT22;40985;53.180;5.800;2024-01-06T07:24:50;2.20;99.90
55091;DHT22;40985;53.180;5.800;2024-01-06T07:27:15;2.60;99.90
55091;DHT22;40985;53.180;5.800;2024-01-06T07:29:41;2.60;99.90
55091;DHT22;40985;53.180;5.800;2024-01-06T07:32:07;2.30;99.90
55091;DHT22;40985;53.180;5.800;2024-01-06T07:34:32;2.60;99.90
55091;DHT22;40985;53.180;5.800;2024-01-06T07:36:59;2.40;99.90
55091;DHT22;40985;53.180;5.800;2024-01-06T07:39:25;2.60;99.90
55091;DHT22;40985;53.180;5.800;2024-01-06T07:41:50;2.20;99.90
55091;DHT22;40985;53.180;5.800;2024-01-06T07:44:16;2.20;99.90
55091;DHT22;40985;53.180;5.800;2024-01-06T07:46:48;2.30;99.90
55091;DHT22;40985;53.180;5.800;2024-01-06T07:49:13;2.60;99.90
55091;DHT22;40985;53.180;5.800;2024-01-06T07:51:39;2.30;99.90
55091;DHT22;40985;53.180;5.800;2024-01-06T07:54:05;2.30;99.90
55091;DHT22;40985;53.180;5.800;2024-01-06T07:56:32;2.60;99.90
55091;DHT22;40985;53.180;5.800;2024-01-06T07:58:57;2.30;99.90
55091;DHT22;40985;53.180;5.800;2024-01-06T08:01:23;2.60;99.90
55091;DHT22;40985;53.180;5.800;2024-01-06T08:03:48;2.30;99.90
55091;DHT22;40985;53.180;5.800;2024-01-06T08:06:14;2.30;99.90
55091;DHT22;40985;53.180;5.800;2024-01-06T08:08:40;2.40;99.90
55091;DHT22;40985;53.180;5.800;2024-01-06T08:11:05;2.40;99.90
55091;DHT22;40985;53.180;5.800;2024-01-06T08:13:31;2.60;99.90
55091;DHT22;40985;53.180;5.800;2024-01-06T08:15:57;2.60;99.90
55091;DHT22;40985;53.180;5.800;2024-01-06T08:18:23;2.60;99.90
55091;DHT22;40985;53.180;5.800;2024-01-06T08:20:49;2.40;99.90
55091;DHT22;40985;53.180;5.800;2024-01-06T08:23:14;2.50;99.90
55091;DHT22;40985;53.180;5.800;2024-01-06T08:25:41;2.50;99.90
55091;DHT22;40985;53.180;5.800;2024-01-06T08:28:07;2.60;99.90
55091;DHT22;40985;53.180;5.800;2024-01-06T08:30:33;2.40;99.90
55091;DHT22;40985;53.180;5.800;2024-01-06T08:32:58;2.30;99.90
55091;DHT22;40985;53.180;5.800;2024-01-06T08:35:25;2.40;99.90
55091;DHT22;40985;53.180;5.800;2024-01-06T08:37:50;2.30;99.90
55091;DHT22;40985;53.180;5.800;2024-01-06T08:40:16;2.70;99.90
55091;DHT22;40985;53.180;5.800;2024-01-06T08:42:42;2.60;99.90
55091;DHT22;40985;53.180;5.800;2024-01-06T08:45:09;2.50;99.90
55091;DHT22;40985;53.180;5.800;2024-01-06T08:47:35;2.30;99.90
55091;DHT22;40985;53.180;5.800;2024-01-06T08:50:00;2.40;99.90
55091;DHT22;40985;53.180;5.800;2024-01-06T08:52:26;2.40;99.90
55091;DHT22;40985;53.180;5.800;2024-01-06T08:54:52;2.30;99.90
55091;DHT22;40985;53.180;5.800;2024-01-06T08:57:17;2.40;99.90
55091;DHT22;40985;53.180;5.800;2024-01-06T08:59:43;2.40;99.90
55091;DHT22;40985;53.180;5.800;2024-01-06T09:02:11;2.60;99.90
55091;DHT22;40985;53.180;5.800;2024-01-06T09:04:36;2.40;99.90
55091;DHT22;40985;53.180;5.800;2024-01-06T09:07:02;2.50;99.90
55091;DHT22;40985;53.180;5.800;2024-01-06T09:09:28;2.30;99.90
55091;DHT22;40985;53.180;5.800;2024-01-06T09:11:54;2.30;99.90
55091;DHT22;40985;53.180;5.800;2024-01-06T09:14:19;2.50;99.90
55091;DHT22;40985;53.180;5.800;2024-01-06T09:16:45;2.50;99.90
55091;DHT22;40985;53.180;5.800;2024-01-06T09:19:11;2.30;99.90
55091;DHT22;40985;53.180;5.800;2024-01-06T09:21:36;2.60;99.90
55091;DHT22;40985;53.180;5.800;2024-01-06T09:24:03;2.30;99.90
55091;DHT22;40985;53.180;5.800;2024-01-06T09:26:34;2.50;99.90
55091;DHT22;40985;53.180;5.800;2024-01-06T09:29:01;2.30;99.90
55091;DHT22;40985;53.180;5.800;2024-01-06T09:31:27;2.60;99.90
55091;DHT22;40985;53.180;5.800;2024-01-06T09:33:52;2.20;99.90
55091;DHT22;40985;53.180;5.800;2024-01-06T09:36:18;2.20;99.90
55091;DHT22;40985;53.180;5.800;2024-01-06T09:38:44;2.10;99.90
55091;DHT22;40985;53.180;5.800;2024-01-06T09:41:10;2.60;99.90
55091;DHT22;40985;53.180;5.800;2024-01-06T09:43:36;2.20;99.90
55091;DHT22;40985;53.180;5.800;2024-01-06T09:46:14;2.50;99.90
55091;DHT22;40985;53.180;5.800;2024-01-06T09:48:43;2.60;99.90
55091;DHT22;40985;53.180;5.800;2024-01-06T09:51:11;2.20;99.90
55091;DHT22;40985;53.180;5.800;2024-01-06T09:53:43;2.20;99.90
55091;DHT22;40985;53.180;5.800;2024-01-06T09:56:14;2.50;99.90
55091;DHT22;40985;53.180;5.800;2024-01-06T09:58:41;2.30;99.90
55091;DHT22;40985;53.180;5.800;2024-01-06T10:01:07;2.20;99.90
55091;DHT22;40985;53.180;5.800;2024-01-06T10:03:35;2.60;99.90
55091;DHT22;40985;53.180;5.800;2024-01-06T10:06:01;2.60;99.90
55091;DHT22;40985;53.180;5.800;2024-01-06T10:08:32;2.40;99.90
55091;DHT22;40985;53.180;5.800;2024-01-06T10:11:00;2.30;99.90
55091;DHT22;40985;53.180;5.800;2024-01-06T10:13:26;2.50;99.90
55091;DHT22;40985;53.180;5.800;2024-01-06T10:15:54;2.40;99.90
55091;DHT22;40985;53.180;5.800;2024-01-06T10:18:20;2.40;99.90
55091;DHT22;40985;53.180;5.800;2024-01-06T10:20:47;2.30;99.90
55091;DHT22;40985;53.180;5.800;2024-01-06T10:23:13;2.40;99.90
55091;DHT22;40985;53.180;5.800;2024-01-06T10:25:38;2.50;99.90
55091;DHT22;40985;53.180;5.800;2024-01-06T10:28:06;2.30;99.90
55091;DHT22;40985;53.180;5.800;2024-01-06T10:30:31;2.40;99.90
55091;DHT22;40985;53.180;5.800;2024-01-06T10:32:57;2.70;99.90
55091;DHT22;40985;53.180;5.800;2024-01-06T10:35:25;2.40;99.90
55091;DHT22;40985;53.180;5.800;2024-01-06T10:37:51;2.40;99.90
55091;DHT22;40985;53.180;5.800;2024-01-06T10:40:17;2.70;99.90
55091;DHT22;40985;53.180;5.800;2024-01-06T10:42:44;2.60;99.90
55091;DHT22;40985;53.180;5.800;2024-01-06T10:45:12;2.60;99.90
55091;DHT22;40985;53.180;5.800;2024-01-06T10:47:40;2.50;99.90
55091;DHT22;40985;53.180;5.800;2024-01-06T10:50:06;2.40;99.90
55091;DHT22;40985;53.180;5.800;2024-01-06T10:52:34;2.30;99.90
55091;DHT22;40985;53.180;5.800;2024-01-06T10:55:01;2.70;99.90
55091;DHT22;40985;53.180;5.800;2024-01-06T10:57:29;2.40;99.90
55091;DHT22;40985;53.180;5.800;2024-01-06T10:59:58;2.60;99.90
55091;DHT22;40985;53.180;5.800;2024-01-06T11:02:25;2.40;99.90
55091;DHT22;40985;53.180;5.800;2024-01-06T11:04:51;2.70;99.90
55091;DHT22;40985;53.180;5.800;2024-01-06T11:07:19;2.60;99.90
55091;DHT22;40985;53.180;5.800;2024-01-06T11:09:58;2.50;99.90
55091;DHT22;40985;53.180;5.800;2024-01-06T11:12:24;2.30;99.90
55091;DHT22;40985;53.180;5.800;2024-01-06T11:14:52;2.50;99.90
55091;DHT22;40985;53.180;5.800;2024-01-06T11:17:52;2.20;99.90
55091;DHT22;40985;53.180;5.800;2024-01-06T11:20:19;2.20;99.90
55091;DHT22;40985;53.180;5.800;2024-01-06T11:22:46;2.20;99.90
55091;DHT22;40985;53.180;5.800;2024-01-06T11:25:22;2.40;99.90
55091;DHT22;40985;53.180;5.800;2024-01-06T11:27:49;2.60;99.90
55091;DHT22;40985;53.180;5.800;2024-01-06T11:30:26;2.30;99.90
55091;DHT22;40985;53.180;5.800;2024-01-06T11:32:53;2.50;99.90
55091;DHT22;40985;53.180;5.800;2024-01-06T11:35:19;2.30;99.90
55091;DHT22;40985;53.180;5.800;2024-01-06T11:40:23;2.30;99.90
55091;DHT22;40985;53.180;5.800;2024-01-06T11:43:01;2.30;99.90
55091;DHT22;40985;53.180;5.800;2024-01-06T11:45:28;2.30;99.90
55091;DHT22;40985;53.180;5.800;2024-01-06T11:47:58;2.40;99.90
55091;DHT22;40985;53.180;5.800;2024-01-06T11:50:29;2.30;99.90
55091;DHT22;40985;53.180;5.800;2024-01-06T11:52:55;2.60;99.90
55091;DHT22;40985;53.180;5.800;2024-01-06T11:55:21;2.30;99.90
55091;DHT22;40985;53.180;5.800;2024-01-06T11:57:47;2.40;99.90
55091;DHT22;40985;53.180;5.800;2024-01-06T12:00:16;2.40;99.90
55091;DHT22;40985;53.180;5.800;2024-01-06T12:02:42;2.20;99.90
55091;DHT22;40985;53.180;5.800;2024-01-06T12:05:18;2.40;99.90
55091;DHT22;40985;53.180;5.800;2024-01-06T12:07:57;2.30;99.90
55091;DHT22;40985;53.180;5.800;2024-01-06T12:10:25;2.20;99.90
55091;DHT22;40985;53.180;5.800;2024-01-06T12:12:57;2.30;99.90
55091;DHT22;40985;53.180;5.800;2024-01-06T12:15:31;2.40;99.90
55091;DHT22;40985;53.180;5.800;2024-01-06T12:17:57;2.30;99.90
55091;DHT22;40985;53.180;5.800;2024-01-06T12:20:24;2.20;99.90
55091;DHT22;40985;53.180;5.800;2024-01-06T12:22:53;2.20;99.90
55091;DHT22;40985;53.180;5.800;2024-01-06T12:25:23;2.40;99.90
55091;DHT22;40985;53.180;5.800;2024-01-06T12:27:49;2.40;99.90
55091;DHT22;40985;53.180;5.800;2024-01-06T12:30:16;2.30;99.90
55091;DHT22;40985;53.180;5.800;2024-01-06T12:32:45;2.20;99.90
55091;DHT22;40985;53.180;5.800;2024-01-06T12:35:11;2.30;99.90
55091;DHT22;40985;53.180;5.800;2024-01-06T12:37:38;2.20;99.90
55091;DHT22;40985;53.180;5.800;2024-01-06T12:40:04;2.20;99.90
55091;DHT22;40985;53.180;5.800;2024-01-06T12:42:30;2.20;99.90
55091;DHT22;40985;53.180;5.800;2024-01-06T12:44:55;2.00;99.90
55091;DHT22;40985;53.180;5.800;2024-01-06T12:47:21;2.10;99.90
55091;DHT22;40985;53.180;5.800;2024-01-06T12:49:47;2.20;99.90
55091;DHT22;40985;53.180;5.800;2024-01-06T12:52:12;2.10;99.90
55091;DHT22;40985;53.180;5.800;2024-01-06T12:54:39;2.10;99.90
55091;DHT22;40985;53.180;5.800;2024-01-06T12:57:05;1.90;99.90
55091;DHT22;40985;53.180;5.800;2024-01-06T12:59:30;2.20;99.90
55091;DHT22;40985;53.180;5.800;2024-01-06T13:01:56;2.10;99.90
55091;DHT22;40985;53.180;5.800;2024-01-06T13:04:22;2.20;99.90
55091;DHT22;40985;53.180;5.800;2024-01-06T13:06:49;1.90;99.90
55091;DHT22;40985;53.180;5.800;2024-01-06T13:09:15;2.20;99.90
55091;DHT22;40985;53.180;5.800;2024-01-06T13:11:44;1.90;99.90
55091;DHT22;40985;53.180;5.800;2024-01-06T13:14:13;2.00;99.90
55091;DHT22;40985;53.180;5.800;2024-01-06T13:16:39;2.00;99.90
55091;DHT22;40985;53.180;5.800;2024-01-06T13:19:04;1.80;99.90
55091;DHT22;40985;53.180;5.800;2024-01-06T13:21:30;2.10;99.90
55091;DHT22;40985;53.180;5.800;2024-01-06T13:23:56;1.80;99.90
55091;DHT22;40985;53.180;5.800;2024-01-06T13:26:26;1.80;99.90
55091;DHT22;40985;53.180;5.800;2024-01-06T13:28:53;1.80;99.90
55091;DHT22;40985;53.180;5.800;2024-01-06T13:31:19;2.00;99.90
55091;DHT22;40985;53.180;5.800;2024-01-06T13:33:46;2.10;99.90
55091;DHT22;40985;53.180;5.800;2024-01-06T13:36:12;1.90;99.90
55091;DHT22;40985;53.180;5.800;2024-01-06T13:38:38;2.10;99.90
55091;DHT22;40985;53.180;5.800;2024-01-06T13:41:03;2.10;99.90
55091;DHT22;40985;53.180;5.800;2024-01-06T13:43:29;2.10;99.90
55091;DHT22;40985;53.180;5.800;2024-01-06T13:45:55;2.00;99.90
55091;DHT22;40985;53.180;5.800;2024-01-06T13:48:21;2.10;99.90
55091;DHT22;40985;53.180;5.800;2024-01-06T13:50:47;2.10;99.90
55091;DHT22;40985;53.180;5.800;2024-01-06T13:53:13;1.90;99.90
55091;DHT22;40985;53.180;5.800;2024-01-06T13:55:40;2.00;99.90
55091;DHT22;40985;53.180;5.800;2024-01-06T13:58:05;2.20;99.90
55091;DHT22;40985;53.180;5.800;2024-01-06T14:00:31;2.10;99.90
55091;DHT22;40985;53.180;5.800;2024-01-06T14:02:57;1.90;99.90
55091;DHT22;40985;53.180;5.800;2024-01-06T14:05:23;2.00;99.90
55091;DHT22;40985;53.180;5.800;2024-01-06T14:07:49;1.80;99.90
55091;DHT22;40985;53.180;5.800;2024-01-06T14:10:16;1.90;99.90
55091;DHT22;40985;53.180;5.800;2024-01-06T14:12:42;1.90;99.90
55091;DHT22;40985;53.180;5.800;2024-01-06T14:15:08;2.20;99.90
55091;DHT22;40985;53.180;5.800;2024-01-06T14:17:34;2.10;99.90
55091;DHT22;40985;53.180;5.800;2024-01-06T14:20:00;2.00;99.90
55091;DHT22;40985;53.180;5.800;2024-01-06T14:22:27;1.90;99.90
55091;DHT22;40985;53.180;5.800;2024-01-06T14:24:53;2.00;99.90
55091;DHT22;40985;53.180;5.800;2024-01-06T14:27:19;1.80;99.90
55091;DHT22;40985;53.180;5.800;2024-01-06T14:29:45;1.70;99.90
55091;DHT22;40985;53.180;5.800;2024-01-06T14:32:12;1.70;99.90
55091;DHT22;40985;53.180;5.800;2024-01-06T14:34:38;1.90;99.90
55091;DHT22;40985;53.180;5.800;2024-01-06T14:37:05;1.80;99.90
55091;DHT22;40985;53.180;5.800;2024-01-06T14:39:30;1.90;99.90
55091;DHT22;40985;53.180;5.800;2024-01-06T14:41:56;1.70;99.90
55091;DHT22;40985;53.180;5.800;2024-01-06T14:44:22;1.80;99.90
55091;DHT22;40985;53.180;5.800;2024-01-06T14:46:48;1.80;99.90
55091;DHT22;40985;53.180;5.800;2024-01-06T14:49:16;1.60;99.90
55091;DHT22;40985;53.180;5.800;2024-01-06T14:51:42;1.90;99.90
55091;DHT22;40985;53.180;5.800;2024-01-06T14:54:08;1.80;99.90
55091;DHT22;40985;53.180;5.800;2024-01-06T14:56:37;1.70;99.90
55091;DHT22;40985;53.180;5.800;2024-01-06T14:59:03;1.60;99.90
55091;DHT22;40985;53.180;5.800;2024-01-06T15:01:28;1.70;99.90
55091;DHT22;40985;53.180;5.800;2024-01-06T15:03:54;1.80;99.90
55091;DHT22;40985;53.180;5.800;2024-01-06T15:06:20;1.60;99.90
55091;DHT22;40985;53.180;5.800;2024-01-06T15:08:45;1.80;99.90
55091;DHT22;40985;53.180;5.800;2024-01-06T15:11:11;1.60;99.90
55091;DHT22;40985;53.180;5.800;2024-01-06T15:13:38;1.80;99.90
55091;DHT22;40985;53.180;5.800;2024-01-06T15:16:04;1.60;99.90
55091;DHT22;40985;53.180;5.800;2024-01-06T15:18:30;1.50;99.90
55091;DHT22;40985;53.180;5.800;2024-01-06T15:20:56;1.60;99.90
55091;DHT22;40985;53.180;5.800;2024-01-06T15:23:21;1.70;99.90
55091;DHT22;40985;53.180;5.800;2024-01-06T15:25:47;1.50;99.90
55091;DHT22;40985;53.180;5.800;2024-01-06T15:28:13;1.60;99.90
55091;DHT22;40985;53.180;5.800;2024-01-06T15:30:39;1.70;99.90
55091;DHT22;40985;53.180;5.800;2024-01-06T15:33:04;1.50;99.90
55091;DHT22;40985;53.180;5.800;2024-01-06T15:35:30;1.40;99.90
55091;DHT22;40985;53.180;5.800;2024-01-06T15:37:56;1.60;99.90
55091;DHT22;40985;53.180;5.800;2024-01-06T15:40:22;1.40;99.90
55091;DHT22;40985;53.180;5.800;2024-01-06T15:42:47;1.60;99.90